Aeroporto :
LOGIN :

Iscrizione | Disclaimer

   EN    FR    IT 

 










Sommario :    VFR   VFR Marginale   IFR   IFR Intensivo   IFR Molto Intensivo
Visibilità : 
Base nubi : 
>= 8 km
>= 3000ft
5 / 8 km
1000 / 3000 ft
1500m / 5 km
500 / 1000 ft
800 / 1500m
200 / 500 ft
< 800m
< 200 ft
Simboli :   Temporali  Nebbia  Neve Forte  Precipitazioni Forti  Vento > 20 kt
SIGMETs :   Varie  Temporali  Ghiacco  Turbolenza  Onda orograficha  Ceneri Vulcaniche






- Altitudine del aeroporto : 580 ft


LFOA - Avord

ULTIMO METAR :
  • 172200Z AUTO 25007KT 9999 -RA FEW016/// SCT029/// BKN036/// ///TCU 14/13 Q1013 TEMPO 3000 SHRA BECMG 19010KT NSC

METARs OBSOLETI :
  • 172130Z AUTO 20007KT 9999 FEW031/// BKN049/// OVC058/// ///TCU 15/12 Q1013 TEMPO 3000 SHRA BECMG NSC
  • 172100Z AUTO 19008KT 9999 FEW032 BKN064 BKN074 14/12 Q1013 TEMPO 3000 SHRA BKN020TCU
  • 172030Z AUTO 19008KT CAVOK 14/12 Q1013 TEMPO 3000 SHRA BKN020TCU
  • 172000Z AUTO 19009KT CAVOK 14/12 Q1013 TEMPO 4000 -SHRA BKN006 SCT015TCU
  • 171930Z AUTO 20008KT CAVOK 14/12 Q1013 TEMPO 4000 -SHRA BKN006 SCT015TCU

TAF TAF LFOA
Valido dal 17 a 21 ore il 18 a 21 ore UTC


172000Z 1721/1821 19010KT CAVOK
TEMPO 1721/1723 3000 SHRA BKN020TCU
BECMG 1804/1806 22010G20KT
TEMPO 1808/1811 27010G30KT 3000 +RA BKN015TCU OVC025
PROB40
TEMPO 1813/1818 4000 -SHRA SCT015TCU
BECMG 1818/1820 17007KT



MetMap, La meteo Aeronautica in un colpo d'occhio ! - Copyright ORBIFLY Dicembre 2007 - Disclaimer

ORBIFLY MET'MAP TEAM :

Programmazione e sviluppo : Alexandra Zaïnal
Concezione e sviluppo : Baudouin d'Aumeries
Co-Programmazione e sviluppo : Marc-Olivier Méhu
Supporto tecnico e logistico : Manuel Goepfert
Aiuto per la traduzione : Arnaldo La Scala

Contatto : metmap@orbifly.com




FONTI E CREDITI :

   NOAA